Time;durP1;ratioP1;P1;durP2;ratioP2;P2;SDS_P1;SDS_P2;PMS_P1;PMS_P2;Temp;Humidity;BMP_temperature;BMP_pressure;BME280_temperature;BME280_humidity;BME280_pressure;Samples;Min_cycle;Max_cycle;Signal;HPM_P1;HPM_P2
2022/01/03 00:01:40;;;;;;;7.30;4.53;;;10.40;99.90;;;;;;5094937;28;20307;-71
2022/01/03 00:04:07;;;;;;;6.13;3.83;;;10.50;99.90;;;;;;5096526;28;20648;-69
2022/01/03 00:06:35;;;;;;;6.90;3.80;;;10.50;99.90;;;;;;5095622;28;20668;-70
2022/01/03 00:09:04;;;;;;;6.27;3.40;;;10.40;99.90;;;;;;5094409;28;20211;-70
2022/01/03 00:11:30;;;;;;;5.17;3.40;;;10.40;99.90;;;;;;5089460;28;20224;-71
2022/01/03 00:13:58;;;;;;;5.77;4.10;;;10.40;99.90;;;;;;5095168;28;20307;-72
2022/01/03 00:16:26;;;;;;;4.90;3.67;;;10.40;99.90;;;;;;5093829;28;20639;-70
2022/01/03 00:18:54;;;;;;;4.93;3.50;;;10.40;99.90;;;;;;5087463;28;20215;-71
2022/01/03 00:21:29;;;;;;;4.17;3.10;;;10.40;99.90;;;;;;5094554;28;20224;-71
2022/01/03 00:24:02;;;;;;;3.97;3.10;;;10.30;99.90;;;;;;5096092;28;20226;-70
2022/01/03 00:26:32;;;;;;;4.70;3.40;;;10.30;99.90;;;;;;5095558;28;20192;-70
2022/01/03 00:29:02;;;;;;;6.60;4.43;;;10.30;99.90;;;;;;5094908;28;20251;-71
2022/01/03 00:31:35;;;;;;;5.47;3.40;;;10.30;99.90;;;;;;5094959;28;20189;-70
2022/01/03 00:34:04;;;;;;;4.87;3.13;;;10.30;99.90;;;;;;5094635;28;20197;-71
2022/01/03 00:36:31;;;;;;;5.53;3.13;;;10.30;99.90;;;;;;5095170;28;20277;-71
2022/01/03 00:38:59;;;;;;;4.27;2.90;;;10.30;99.90;;;;;;5094862;28;21726;-70
2022/01/03 00:41:26;;;;;;;7.40;3.93;;;10.30;99.90;;;;;;5093814;28;20255;-70
2022/01/03 00:43:54;;;;;;;6.70;3.60;;;10.30;99.90;;;;;;5094934;28;20232;-70
2022/01/03 00:46:22;;;;;;;5.33;3.70;;;10.30;99.90;;;;;;5094802;28;20209;-71
2022/01/03 00:48:50;;;;;;;4.03;3.00;;;10.30;99.90;;;;;;5094912;28;20295;-70
2022/01/03 00:51:19;;;;;;;4.33;3.70;;;10.30;99.90;;;;;;5095086;28;20577;-69
2022/01/03 00:53:47;;;;;;;5.43;3.20;;;10.30;99.90;;;;;;5080839;28;20205;-70
2022/01/03 00:56:18;;;;;;;4.47;2.73;;;10.30;99.90;;;;;;5094925;28;20236;-69
2022/01/03 00:58:52;;;;;;;6.17;3.00;;;10.30;99.90;;;;;;5094496;28;20197;-70
2022/01/03 01:01:20;;;;;;;5.33;2.60;;;10.30;99.90;;;;;;5094662;28;20216;-70
2022/01/03 01:03:53;;;;;;;3.77;2.63;;;10.30;99.90;;;;;;5095353;28;20276;-70
2022/01/03 01:06:22;;;;;;;3.30;2.83;;;10.30;99.90;;;;;;5094812;28;20240;-71
2022/01/03 01:08:54;;;;;;;3.60;3.00;;;10.30;99.90;;;;;;5094467;28;20291;-69
2022/01/03 01:11:27;;;;;;;5.93;3.20;;;10.30;99.90;;;;;;5094381;28;20348;-70
2022/01/03 01:13:54;;;;;;;6.40;3.07;;;10.30;99.90;;;;;;5094753;28;20200;-70
2022/01/03 01:16:22;;;;;;;4.10;3.13;;;10.30;99.90;;;;;;5094100;28;20295;-70
2022/01/03 01:18:50;;;;;;;3.40;2.80;;;10.30;99.90;;;;;;5094173;28;20300;-70
2022/01/03 01:21:18;;;;;;;4.60;2.50;;;10.30;99.90;;;;;;5094614;28;20256;-69
2022/01/03 01:23:45;;;;;;;3.50;2.43;;;10.30;99.90;;;;;;5095249;28;20335;-70
2022/01/03 01:28:57;;;;;;;4.03;2.60;;;10.30;99.90;;;;;;5093675;28;20329;-70
2022/01/03 01:31:25;;;;;;;5.47;3.23;;;10.30;99.90;;;;;;5095571;28;20201;-70
2022/01/03 01:33:56;;;;;;;5.73;3.30;;;10.20;99.90;;;;;;5094544;28;20548;-70
2022/01/03 01:36:26;;;;;;;4.47;3.23;;;10.20;99.90;;;;;;5094276;28;20246;-70
2022/01/03 01:38:55;;;;;;;3.00;2.40;;;10.20;99.90;;;;;;5093605;28;20296;-70
2022/01/03 01:41:26;;;;;;;3.00;2.50;;;10.20;99.90;;;;;;5080977;28;20220;-70
2022/01/03 01:43:56;;;;;;;4.40;2.83;;;10.10;99.90;;;;;;5095595;28;20216;-70
2022/01/03 01:46:24;;;;;;;6.37;3.43;;;10.10;99.90;;;;;;5094969;28;20203;-70
2022/01/03 01:48:52;;;;;;;3.77;2.43;;;10.10;99.90;;;;;;5089717;28;20215;-71
2022/01/03 01:51:22;;;;;;;4.00;2.80;;;10.10;99.90;;;;;;5094763;28;20212;-71
2022/01/03 01:53:52;;;;;;;3.33;2.20;;;10.10;99.90;;;;;;5094951;28;20613;-71
2022/01/03 01:56:21;;;;;;;5.77;2.37;;;10.00;99.90;;;;;;5095620;28;20540;-71
2022/01/03 01:59:10;;;;;;;5.33;2.40;;;10.10;99.90;;;;;;5094863;28;20219;-71
2022/01/03 02:01:56;;;;;;;4.23;2.60;;;10.00;99.90;;;;;;5088486;28;20228;-71
2022/01/03 02:04:34;;;;;;;6.53;3.30;;;10.10;99.90;;;;;;5095452;28;20575;-71
2022/01/03 02:07:25;;;;;;;3.97;2.53;;;10.10;99.90;;;;;;5094468;28;20204;-71
2022/01/03 02:10:04;;;;;;;3.93;2.40;;;10.00;99.90;;;;;;5094871;28;20200;-71
2022/01/03 02:12:36;;;;;;;4.17;2.67;;;10.10;99.90;;;;;;5092652;28;20655;-71
2022/01/03 02:15:04;;;;;;;3.23;2.30;;;10.10;99.90;;;;;;5093662;28;20200;-70
2022/01/03 02:17:31;;;;;;;2.63;2.27;;;10.00;99.90;;;;;;5092617;28;20295;-70
2022/01/03 02:20:10;;;;;;;4.30;2.73;;;10.00;99.90;;;;;;5093751;28;20713;-71
2022/01/03 02:22:38;;;;;;;5.23;2.60;;;10.00;99.90;;;;;;5093988;28;20212;-72
2022/01/03 02:25:06;;;;;;;4.60;2.40;;;10.00;99.90;;;;;;5094103;28;20211;-71
2022/01/03 02:27:33;;;;;;;4.70;2.63;;;10.00;99.90;;;;;;5094428;28;20240;-71
2022/01/03 02:30:00;;;;;;;4.40;2.50;;;9.90;99.90;;;;;;5094007;28;20883;-72
2022/01/03 02:32:27;;;;;;;3.23;2.50;;;9.90;99.90;;;;;;5094121;28;20204;-72
2022/01/03 02:34:54;;;;;;;3.23;2.33;;;9.90;99.90;;;;;;5094522;28;20552;-71
2022/01/03 02:37:24;;;;;;;3.17;2.33;;;9.80;99.90;;;;;;5093431;28;20212;-71
2022/01/03 02:39:51;;;;;;;3.00;2.33;;;9.70;99.90;;;;;;5092915;28;20216;-70
2022/01/03 02:42:22;;;;;;;6.20;2.20;;;9.80;99.90;;;;;;5096703;28;20231;-70
2022/01/03 02:44:49;;;;;;;3.87;2.30;;;9.80;99.90;;;;;;5083371;28;20470;-70
2022/01/03 02:47:22;;;;;;;4.10;2.40;;;9.80;99.90;;;;;;5097584;28;20208;-70
2022/01/03 02:49:49;;;;;;;4.50;2.40;;;9.80;99.90;;;;;;5097400;28;20261;-70
2022/01/03 02:52:16;;;;;;;2.87;2.37;;;9.80;99.90;;;;;;5097425;28;20292;-71
2022/01/03 02:54:44;;;;;;;3.47;2.13;;;9.70;99.90;;;;;;5096682;28;20240;-70
2022/01/03 02:57:11;;;;;;;2.90;2.03;;;9.70;99.90;;;;;;5083870;28;20246;-70
2022/01/03 02:59:38;;;;;;;4.83;2.23;;;9.70;99.90;;;;;;5097285;28;20215;-70
2022/01/03 03:02:06;;;;;;;3.23;2.30;;;9.70;99.90;;;;;;5097833;28;20582;-71
2022/01/03 03:04:33;;;;;;;4.00;2.23;;;9.60;99.90;;;;;;5097113;28;20291;-70
2022/01/03 03:07:00;;;;;;;3.57;2.07;;;9.60;99.90;;;;;;5097476;28;20231;-71
2022/01/03 03:09:27;;;;;;;3.17;2.23;;;9.60;99.90;;;;;;5096031;28;20197;-70
2022/01/03 03:11:55;;;;;;;5.30;2.30;;;9.60;99.90;;;;;;5096711;28;20200;-71
2022/01/03 03:14:22;;;;;;;3.90;1.87;;;9.40;99.90;;;;;;5098352;28;20604;-70
2022/01/03 03:16:49;;;;;;;3.47;2.40;;;9.40;99.90;;;;;;5095276;28;20205;-71
2022/01/03 03:19:15;;;;;;;2.40;2.20;;;9.40;99.90;;;;;;5082390;28;20255;-71
2022/01/03 03:21:42;;;;;;;3.50;2.03;;;9.40;99.90;;;;;;5095238;28;20299;-71
2022/01/03 03:24:09;;;;;;;4.67;2.53;;;9.30;99.90;;;;;;5095762;28;20223;-70
2022/01/03 03:26:36;;;;;;;2.93;2.17;;;9.30;99.90;;;;;;5095892;28;20201;-70
2022/01/03 03:29:04;;;;;;;5.33;2.50;;;9.30;99.90;;;;;;5094468;28;20250;-70
2022/01/03 03:31:31;;;;;;;3.37;1.90;;;9.30;99.90;;;;;;5095916;28;20301;-71
2022/01/03 03:33:58;;;;;;;3.47;2.27;;;9.20;99.90;;;;;;5095512;28;20711;-70
2022/01/03 03:36:24;;;;;;;3.13;2.27;;;9.20;99.90;;;;;;5095951;28;20200;-70
2022/01/03 03:38:51;;;;;;;4.97;2.30;;;9.10;99.90;;;;;;5095498;28;20213;-70
2022/01/03 03:41:18;;;;;;;4.93;2.37;;;9.10;99.90;;;;;;5094777;28;20295;-70
2022/01/03 03:43:45;;;;;;;3.83;1.97;;;9.10;99.90;;;;;;5095087;28;20272;-72
2022/01/03 03:46:13;;;;;;;2.50;2.20;;;9.10;99.90;;;;;;5095912;28;20635;-70
2022/01/03 03:48:40;;;;;;;4.20;2.07;;;9.10;99.90;;;;;;5095495;28;20205;-70
2022/01/03 03:51:07;;;;;;;3.80;2.10;;;9.00;99.90;;;;;;5094045;28;20205;-70
2022/01/03 03:53:34;;;;;;;3.90;1.70;;;9.00;99.90;;;;;;5094369;28;20485;-70
2022/01/03 03:56:01;;;;;;;4.17;2.10;;;9.00;99.90;;;;;;5095328;28;20217;-69
2022/01/03 03:58:28;;;;;;;4.60;2.00;;;9.00;99.90;;;;;;5095896;28;20211;-70
2022/01/03 04:00:55;;;;;;;3.50;2.00;;;9.00;99.90;;;;;;5095584;28;20308;-69
2022/01/03 04:03:23;;;;;;;4.97;2.00;;;9.00;99.90;;;;;;5095384;28;20234;-71
2022/01/03 04:05:50;;;;;;;3.63;2.07;;;9.00;99.90;;;;;;5095516;28;20231;-71
2022/01/03 04:08:17;;;;;;;4.03;2.47;;;9.00;99.90;;;;;;5094733;28;20201;-69
2022/01/03 04:10:44;;;;;;;3.20;2.10;;;9.00;99.90;;;;;;5094100;28;20211;-70
2022/01/03 04:13:10;;;;;;;3.13;2.03;;;8.90;99.90;;;;;;5094774;28;20295;-70
2022/01/03 04:15:37;;;;;;;5.13;2.20;;;8.90;99.90;;;;;;5094415;28;20205;-70
2022/01/03 04:18:04;;;;;;;3.70;2.03;;;8.90;99.90;;;;;;5094426;28;20213;-70
2022/01/03 04:20:32;;;;;;;3.97;2.43;;;8.90;99.90;;;;;;5094493;28;20724;-70
2022/01/03 04:22:59;;;;;;;5.77;2.23;;;8.80;99.90;;;;;;5094003;28;20246;-72
2022/01/03 04:25:26;;;;;;;4.43;2.23;;;8.80;99.90;;;;;;5095205;28;20300;-71
2022/01/03 04:27:53;;;;;;;2.30;2.00;;;8.70;99.90;;;;;;5094335;28;20209;-71
2022/01/03 04:30:20;;;;;;;4.60;2.97;;;8.70;99.90;;;;;;5093980;28;20259;-72
2022/01/03 04:32:47;;;;;;;5.77;2.83;;;8.70;99.90;;;;;;5094603;28;20292;-71
2022/01/03 04:35:14;;;;;;;5.07;2.60;;;8.70;99.90;;;;;;5093859;28;20206;-70
2022/01/03 04:37:43;;;;;;;4.97;3.37;;;8.60;99.90;;;;;;5093979;28;20212;-71
2022/01/03 04:40:11;;;;;;;4.37;3.10;;;8.60;99.90;;;;;;5093874;28;20703;-70
2022/01/03 04:42:38;;;;;;;3.50;2.60;;;8.60;99.90;;;;;;5094145;28;20228;-70
2022/01/03 04:45:06;;;;;;;6.73;3.20;;;8.50;99.90;;;;;;5094523;28;20303;-70
2022/01/03 04:47:33;;;;;;;6.47;3.30;;;8.50;99.90;;;;;;5094027;28;20540;-70
2022/01/03 04:50:00;;;;;;;5.73;2.97;;;8.50;99.90;;;;;;5094221;28;20216;-70
2022/01/03 04:52:26;;;;;;;3.97;3.00;;;8.50;99.90;;;;;;5093333;28;20709;-71
2022/01/03 04:54:55;;;;;;;4.40;3.00;;;8.50;99.90;;;;;;5093141;28;20209;-70
2022/01/03 04:57:22;;;;;;;4.00;3.10;;;8.50;99.90;;;;;;5094049;28;20278;-71
2022/01/03 04:59:49;;;;;;;6.03;3.40;;;8.50;99.90;;;;;;5094117;28;20238;-70
2022/01/03 05:02:16;;;;;;;3.37;2.73;;;8.40;99.90;;;;;;5079894;28;20528;-71
2022/01/03 05:04:43;;;;;;;5.47;3.33;;;8.50;99.90;;;;;;5092568;28;20212;-72
2022/01/03 05:07:09;;;;;;;5.70;2.90;;;8.50;99.90;;;;;;5093950;28;20208;-71
2022/01/03 05:09:36;;;;;;;4.87;3.10;;;8.50;99.90;;;;;;5086891;28;20205;-70
2022/01/03 05:12:05;;;;;;;4.30;2.97;;;8.40;99.90;;;;;;5093785;28;20212;-71
2022/01/03 05:14:32;;;;;;;4.30;3.00;;;8.40;99.90;;;;;;5093852;28;20215;-70
2022/01/03 05:16:59;;;;;;;5.53;3.07;;;8.40;99.90;;;;;;5094378;28;20200;-70
2022/01/03 05:19:26;;;;;;;4.60;3.10;;;8.40;99.90;;;;;;5094475;28;20215;-72
2022/01/03 05:21:53;;;;;;;5.87;3.37;;;8.40;99.90;;;;;;5093404;28;20208;-71
2022/01/03 05:24:20;;;;;;;4.77;2.83;;;8.40;99.90;;;;;;5093527;28;20202;-70
2022/01/03 05:26:47;;;;;;;8.47;3.50;;;8.40;99.90;;;;;;5094418;28;20645;-71
2022/01/03 05:29:15;;;;;;;6.13;3.43;;;8.30;99.90;;;;;;5094062;28;20232;-71
2022/01/03 05:31:42;;;;;;;3.90;2.93;;;8.30;99.90;;;;;;5094943;28;20219;-70
2022/01/03 05:34:09;;;;;;;5.50;2.97;;;8.30;99.90;;;;;;5094290;28;20695;-72
2022/01/03 05:36:36;;;;;;;5.27;3.50;;;8.30;99.90;;;;;;5094616;28;20653;-72
2022/01/03 05:39:03;;;;;;;7.13;3.30;;;8.30;99.90;;;;;;5094217;28;20201;-70
2022/01/03 05:41:32;;;;;;;5.10;3.27;;;8.30;99.90;;;;;;5095170;28;20687;-72
2022/01/03 05:43:59;;;;;;;8.87;3.87;;;8.30;99.90;;;;;;5094079;28;20309;-70
2022/01/03 05:46:27;;;;;;;4.73;3.33;;;8.20;99.90;;;;;;5094351;28;20292;-71
2022/01/03 05:48:54;;;;;;;4.43;3.20;;;8.30;99.90;;;;;;5094868;28;20208;-70
2022/01/03 05:51:21;;;;;;;4.23;3.10;;;8.20;99.90;;;;;;5094278;28;20204;-70
2022/01/03 05:53:48;;;;;;;6.17;3.30;;;8.20;99.90;;;;;;5094139;28;20296;-71
2022/01/03 05:56:14;;;;;;;8.23;3.83;;;8.20;99.90;;;;;;5093633;28;20713;-70
2022/01/03 05:58:42;;;;;;;5.50;4.07;;;8.20;99.90;;;;;;5094046;28;20200;-69
2022/01/03 06:01:09;;;;;;;4.83;3.50;;;8.20;99.90;;;;;;5093830;28;20200;-70
2022/01/03 06:03:39;;;;;;;5.80;3.47;;;8.20;99.90;;;;;;5094316;28;20248;-71
2022/01/03 06:06:20;;;;;;;5.80;4.03;;;8.10;99.90;;;;;;5093802;28;20597;-70
2022/01/03 06:08:47;;;;;;;4.93;3.57;;;8.20;99.90;;;;;;5093236;28;20250;-71
2022/01/03 06:11:14;;;;;;;4.43;3.43;;;8.10;99.90;;;;;;5093087;28;20568;-71
2022/01/03 06:13:41;;;;;;;4.63;3.60;;;8.10;99.90;;;;;;5093119;28;20201;-70
2022/01/03 06:16:08;;;;;;;4.17;3.30;;;8.10;99.90;;;;;;5098753;28;20207;-70
2022/01/03 06:18:38;;;;;;;6.57;3.90;;;8.10;99.90;;;;;;5099035;28;20580;-71
2022/01/03 06:21:05;;;;;;;5.53;3.90;;;8.10;99.90;;;;;;5092711;28;20572;-71
2022/01/03 06:23:32;;;;;;;5.10;3.93;;;8.10;99.90;;;;;;5091396;28;20220;-71
2022/01/03 06:25:59;;;;;;;5.83;3.83;;;8.10;99.90;;;;;;5092917;28;20235;-70
2022/01/03 06:28:26;;;;;;;4.47;3.30;;;8.10;99.90;;;;;;5092936;28;20201;-71
2022/01/03 06:30:52;;;;;;;4.87;3.17;;;8.10;99.90;;;;;;5096002;28;20287;-71
2022/01/03 06:33:19;;;;;;;5.70;3.67;;;8.10;99.90;;;;;;5093781;28;20211;-71
2022/01/03 06:35:47;;;;;;;4.70;3.40;;;8.10;99.90;;;;;;5093349;28;20219;-71
2022/01/03 06:38:14;;;;;;;5.87;3.97;;;8.10;99.90;;;;;;5093151;28;20284;-71
2022/01/03 06:40:41;;;;;;;4.60;3.43;;;8.10;99.90;;;;;;5093121;28;20291;-70
2022/01/03 06:43:08;;;;;;;7.13;3.80;;;8.10;99.90;;;;;;5092878;28;20723;-72
2022/01/03 06:45:35;;;;;;;5.33;3.93;;;8.10;99.90;;;;;;5093676;28;20608;-71
2022/01/03 06:48:02;;;;;;;6.37;3.90;;;8.10;99.90;;;;;;5092557;28;20208;-70
2022/01/03 06:50:30;;;;;;;6.13;4.20;;;8.20;99.90;;;;;;5092858;28;20204;-71
2022/01/03 06:52:59;;;;;;;6.17;4.13;;;8.10;99.90;;;;;;5093295;28;20205;-71
2022/01/03 06:55:26;;;;;;;5.53;3.43;;;8.10;99.90;;;;;;5105023;28;20209;-71
2022/01/03 06:57:53;;;;;;;4.47;3.77;;;8.10;99.90;;;;;;5093786;28;20247;-71
2022/01/03 07:00:20;;;;;;;8.57;4.83;;;8.20;99.90;;;;;;5091681;28;20208;-72
2022/01/03 07:02:47;;;;;;;8.83;4.10;;;8.20;99.90;;;;;;5092865;28;20235;-71
2022/01/03 07:05:15;;;;;;;4.03;3.50;;;8.10;99.90;;;;;;5091921;28;20208;-71
2022/01/03 07:07:42;;;;;;;8.43;4.17;;;8.20;99.90;;;;;;5091263;28;20215;-70
2022/01/03 07:10:11;;;;;;;4.30;3.60;;;8.10;99.90;;;;;;5104564;28;20206;-72
2022/01/03 07:12:38;;;;;;;6.27;3.33;;;8.20;99.90;;;;;;5092199;28;20723;-71
2022/01/03 07:20:35;;;;;;;5.20;3.27;;;8.20;99.90;;;;;;5091487;28;20562;-72
2022/01/03 07:23:02;;;;;;;4.90;3.77;;;8.20;99.90;;;;;;5085933;28;20681;-71
2022/01/03 07:25:30;;;;;;;6.80;3.70;;;8.10;99.90;;;;;;5093548;28;20201;-70
2022/01/03 07:27:57;;;;;;;5.87;3.90;;;8.20;99.90;;;;;;5094446;28;20299;-70
2022/01/03 07:30:24;;;;;;;4.57;4.00;;;8.20;99.90;;;;;;5096447;28;20589;-70
2022/01/03 07:32:51;;;;;;;7.73;4.27;;;8.20;99.90;;;;;;5095177;28;20207;-72
2022/01/03 07:35:18;;;;;;;7.30;4.60;;;8.30;99.90;;;;;;5095277;28;20239;-70
2022/01/03 07:37:45;;;;;;;7.27;3.73;;;8.30;99.90;;;;;;5095121;28;20584;-70
2022/01/03 07:40:12;;;;;;;7.40;4.70;;;8.40;99.90;;;;;;5101209;28;20209;-71
2022/01/03 07:42:42;;;;;;;8.83;4.50;;;8.40;99.90;;;;;;5095149;28;20320;-72
2022/01/03 07:45:10;;;;;;;7.37;4.73;;;8.40;99.90;;;;;;5095756;28;20292;-72
2022/01/03 07:47:37;;;;;;;5.63;3.70;;;8.50;99.90;;;;;;5094033;28;20676;-69
2022/01/03 07:50:04;;;;;;;6.70;4.00;;;8.50;99.90;;;;;;5092919;28;20589;-69
2022/01/03 07:52:32;;;;;;;6.40;4.20;;;8.60;99.90;;;;;;5093409;28;20565;-69
2022/01/03 07:54:58;;;;;;;7.07;4.23;;;8.60;99.90;;;;;;5092879;28;20200;-69
2022/01/03 07:57:25;;;;;;;6.57;4.00;;;8.60;99.90;;;;;;5093688;28;20235;-68
2022/01/03 07:59:55;;;;;;;6.73;3.90;;;8.60;99.90;;;;;;5085331;28;20207;-71
2022/01/03 08:02:22;;;;;;;7.00;4.40;;;8.70;99.90;;;;;;5094017;28;20297;-70
2022/01/03 08:04:49;;;;;;;6.53;4.20;;;8.70;99.90;;;;;;5095651;28;20224;-69
2022/01/03 08:07:16;;;;;;;6.40;4.03;;;8.70;99.90;;;;;;5095237;28;20589;-67
2022/01/03 08:09:43;;;;;;;12.43;4.70;;;8.80;99.90;;;;;;5094614;28;20272;-69
2022/01/03 08:12:10;;;;;;;5.93;4.33;;;8.80;99.90;;;;;;5093910;28;20210;-69
2022/01/03 08:14:37;;;;;;;5.50;4.10;;;8.90;99.90;;;;;;5094054;28;20205;-68
2022/01/03 08:17:06;;;;;;;8.00;4.40;;;8.90;99.90;;;;;;5093234;28;20214;-68
2022/01/03 08:19:33;;;;;;;7.73;4.90;;;8.90;99.90;;;;;;5093806;28;20472;-70
2022/01/03 08:22:00;;;;;;;6.70;4.70;;;8.90;99.90;;;;;;5094988;28;20204;-69
2022/01/03 08:24:27;;;;;;;8.20;4.40;;;8.90;99.90;;;;;;5097580;28;20299;-68
2022/01/03 08:26:54;;;;;;;5.63;4.77;;;8.90;99.90;;;;;;5093314;28;20296;-67
2022/01/03 08:29:21;;;;;;;7.80;4.97;;;8.90;99.90;;;;;;5093551;28;20232;-69
2022/01/03 08:31:48;;;;;;;9.37;4.90;;;9.00;99.90;;;;;;5095086;28;20562;-69
2022/01/03 08:34:16;;;;;;;9.17;4.53;;;9.00;99.90;;;;;;5095596;28;20212;-69
2022/01/03 08:36:43;;;;;;;7.57;4.70;;;9.00;99.90;;;;;;5093327;28;20232;-69
2022/01/03 08:39:10;;;;;;;7.47;5.00;;;8.90;99.90;;;;;;5092563;28;20291;-68
2022/01/03 08:41:37;;;;;;;7.60;4.90;;;9.00;99.90;;;;;;5092722;28;20196;-68
2022/01/03 08:44:05;;;;;;;9.63;5.23;;;9.00;99.90;;;;;;5096831;28;20231;-68
2022/01/03 08:46:31;;;;;;;9.93;5.30;;;9.00;99.90;;;;;;5096218;28;20763;-64
2022/01/03 08:48:58;;;;;;;10.17;5.63;;;9.00;99.90;;;;;;5091625;28;20205;-67
2022/01/03 08:51:26;;;;;;;9.00;5.43;;;9.00;99.90;;;;;;5091726;28;20208;-65
2022/01/03 08:53:54;;;;;;;7.57;4.87;;;9.00;99.90;;;;;;5091787;28;20209;-63
2022/01/03 08:56:21;;;;;;;9.10;5.60;;;9.00;99.90;;;;;;5091596;28;20256;-68
2022/01/03 08:58:48;;;;;;;9.00;5.73;;;9.00;99.90;;;;;;5091933;28;20208;-65
2022/01/03 09:01:15;;;;;;;8.30;5.17;;;9.00;99.90;;;;;;5099114;28;20239;-66
2022/01/03 09:03:42;;;;;;;10.60;5.30;;;9.00;99.90;;;;;;5093766;28;20220;-66
2022/01/03 09:06:08;;;;;;;8.30;5.53;;;9.00;99.90;;;;;;5092645;28;20204;-66
2022/01/03 09:08:37;;;;;;;9.30;5.63;;;9.00;99.90;;;;;;5090951;28;20391;-64
2022/01/03 09:11:04;;;;;;;7.77;5.53;;;9.00;99.90;;;;;;5091046;28;20304;-67
2022/01/03 09:13:30;;;;;;;6.73;4.90;;;9.00;99.90;;;;;;5091418;28;20228;-67
2022/01/03 09:15:57;;;;;;;8.50;5.43;;;9.10;99.90;;;;;;5091392;28;20212;-67
2022/01/03 09:18:26;;;;;;;7.03;4.50;;;9.10;99.90;;;;;;5091400;28;20289;-66
2022/01/03 09:20:53;;;;;;;8.20;5.17;;;9.10;99.90;;;;;;5091473;28;20661;-66
2022/01/03 09:23:25;;;;;;;5.83;4.40;;;9.10;99.90;;;;;;5092435;28;20298;-67
2022/01/03 09:28:49;;;;;;;7.77;4.73;;;9.10;99.90;;;;;;5091860;28;20293;-67
2022/01/03 09:31:17;;;;;;;5.87;4.80;;;9.10;99.90;;;;;;5092711;28;20329;-69
2022/01/03 09:33:44;;;;;;;7.93;4.67;;;9.10;99.90;;;;;;5093866;28;20201;-68
2022/01/03 09:36:11;;;;;;;6.00;4.13;;;9.10;99.90;;;;;;5093041;28;20268;-71
2022/01/03 09:38:38;;;;;;;4.88;4.15;;;9.10;99.90;;;;;;5091467;28;20825;-67
2022/01/03 09:41:07;;;;;;;6.57;4.77;;;9.10;99.90;;;;;;5091507;28;20997;-68
2022/01/03 09:43:41;;;;;;;6.03;4.60;;;9.10;99.90;;;;;;5092091;28;20677;-68
2022/01/03 09:46:11;;;;;;;7.35;4.80;;;9.10;99.90;;;;;;5090505;28;20448;-69
2022/01/03 09:48:41;;;;;;;5.80;4.85;;;9.20;99.90;;;;;;5091194;28;20864;-70
2022/01/03 09:51:11;;;;;;;5.15;4.28;;;9.10;99.90;;;;;;5091670;28;20458;-70
2022/01/03 09:53:40;;;;;;;4.47;4.03;;;9.00;99.90;;;;;;5097499;28;20281;-69
2022/01/03 09:56:08;;;;;;;4.30;3.90;;;9.10;99.90;;;;;;5101143;28;20514;-69
2022/01/03 09:58:36;;;;;;;7.43;3.90;;;9.00;99.90;;;;;;5094068;28;20204;-70
2022/01/03 10:01:03;;;;;;;4.77;3.60;;;9.00;99.90;;;;;;5098932;28;20207;-69
2022/01/03 10:03:30;;;;;;;5.53;3.80;;;9.00;99.90;;;;;;5092576;28;20205;-69
2022/01/03 10:05:57;;;;;;;4.10;3.67;;;9.00;99.90;;;;;;5091351;28;20236;-69
2022/01/03 10:08:24;;;;;;;3.73;3.10;;;9.00;99.90;;;;;;5090827;28;20218;-66
2022/01/03 10:10:52;;;;;;;4.37;2.83;;;9.00;99.90;;;;;;5091712;28;20702;-70
2022/01/03 10:13:20;;;;;;;5.03;3.53;;;9.00;99.90;;;;;;5091567;28;20240;-69
2022/01/03 10:15:48;;;;;;;5.67;3.37;;;8.90;99.90;;;;;;5090928;28;20211;-66
2022/01/03 10:18:19;;;;;;;3.60;3.13;;;8.90;99.90;;;;;;5091099;28;20200;-68
2022/01/03 10:20:46;;;;;;;3.70;2.70;;;8.90;99.90;;;;;;5092455;28;20700;-68
2022/01/03 10:23:16;;;;;;;5.10;2.93;;;8.90;99.90;;;;;;5092520;28;20220;-69
2022/01/03 10:25:44;;;;;;;3.60;2.73;;;8.80;99.90;;;;;;5089426;28;20316;-69
2022/01/03 10:28:11;;;;;;;3.07;2.77;;;8.80;99.90;;;;;;5089999;28;20295;-65
2022/01/03 10:30:42;;;;;;;3.27;2.53;;;8.70;99.90;;;;;;5091049;28;20235;-69
2022/01/03 10:33:11;;;;;;;3.22;2.85;;;8.70;99.90;;;;;;5092692;28;20526;-69
2022/01/03 10:35:40;;;;;;;4.72;4.15;;;8.70;99.90;;;;;;5088721;28;20467;-68
2022/01/03 10:38:08;;;;;;;5.57;2.80;;;8.60;99.90;;;;;;5092126;28;21080;-68
2022/01/03 10:40:35;;;;;;;4.37;2.50;;;8.60;99.90;;;;;;5090885;28;20208;-68
2022/01/03 10:43:15;;;;;;;2.87;2.17;;;8.50;99.90;;;;;;5090456;28;20200;-68
2022/01/03 10:45:44;;;;;;;4.03;3.08;;;8.60;99.90;;;;;;5092779;28;21020;-69
2022/01/03 10:48:32;;;;;;;3.58;2.60;;;8.50;99.90;;;;;;5080172;28;20571;-68
2022/01/03 10:51:00;;;;;;;3.20;2.33;;;8.50;99.90;;;;;;5094661;28;20200;-69
2022/01/03 10:53:36;;;;;;;2.90;2.10;;;8.60;99.90;;;;;;5092436;28;20650;-69
2022/01/03 10:56:24;;;;;;;3.27;2.63;;;8.50;99.90;;;;;;5091766;28;20696;-68
2022/01/03 10:58:52;;;;;;;3.87;2.80;;;8.50;99.90;;;;;;5090725;28;20197;-67
2022/01/03 11:01:24;;;;;;;4.37;2.70;;;8.50;99.90;;;;;;5090638;28;20206;-68
2022/01/03 11:03:52;;;;;;;3.23;2.03;;;8.50;99.90;;;;;;5094745;28;20213;-69
2022/01/03 11:06:25;;;;;;;2.97;1.93;;;8.50;99.90;;;;;;5100466;28;20717;-69
2022/01/03 11:11:41;;;;;;;4.03;1.80;;;8.50;99.90;;;;;;5094525;28;20695;-69
2022/01/03 11:14:10;;;;;;;2.37;2.00;;;8.40;99.90;;;;;;5093636;28;20199;-69
2022/01/03 11:16:40;;;;;;;3.03;1.90;;;8.40;99.90;;;;;;5094678;28;20273;-68
2022/01/03 11:19:07;;;;;;;2.40;1.50;;;8.40;99.90;;;;;;5093731;28;20204;-69
2022/01/03 11:21:36;;;;;;;3.03;1.80;;;8.40;99.90;;;;;;5093242;28;20303;-69
2022/01/03 11:24:09;;;;;;;2.70;2.07;;;8.30;99.90;;;;;;5093628;28;20224;-68
2022/01/03 11:26:39;;;;;;;3.27;1.80;;;8.40;99.90;;;;;;5093458;28;20546;-69
2022/01/03 11:29:06;;;;;;;3.53;2.10;;;8.40;99.90;;;;;;5092868;28;20240;-69
2022/01/03 11:31:38;;;;;;;4.30;2.17;;;8.50;99.90;;;;;;5094500;28;20315;-69
2022/01/03 11:34:08;;;;;;;2.20;2.00;;;8.40;99.90;;;;;;5097065;28;20212;-69
2022/01/03 11:36:36;;;;;;;3.17;2.17;;;8.50;99.90;;;;;;5093970;28;20584;-70
2022/01/03 11:39:08;;;;;;;3.30;2.23;;;8.50;99.90;;;;;;5093781;28;20230;-70
2022/01/03 11:41:35;;;;;;;3.47;2.30;;;8.60;99.90;;;;;;5094452;28;20216;-69
2022/01/03 11:44:04;;;;;;;3.77;2.27;;;8.60;99.90;;;;;;5093858;28;20208;-69
2022/01/03 11:46:31;;;;;;;3.13;2.30;;;8.60;99.90;;;;;;5094138;28;20215;-69
2022/01/03 11:48:58;;;;;;;7.13;2.33;;;8.60;99.90;;;;;;5095186;28;20291;-69
2022/01/03 11:51:30;;;;;;;5.00;2.23;;;8.60;99.90;;;;;;5095222;28;20205;-69
2022/01/03 11:53:58;;;;;;;4.80;2.60;;;8.60;99.90;;;;;;5094703;28;20197;-69
2022/01/03 11:56:26;;;;;;;4.47;2.53;;;8.60;99.90;;;;;;5094310;28;20225;-69
2022/01/03 11:59:01;;;;;;;4.17;2.43;;;8.60;99.90;;;;;;5094568;28;20235;-68
2022/01/03 12:04:24;;;;;;;4.17;2.63;;;8.70;99.90;;;;;;5093245;28;20223;-69
2022/01/03 12:07:04;;;;;;;3.93;2.30;;;8.80;99.90;;;;;;5096088;28;20654;-70
2022/01/03 12:09:32;;;;;;;5.87;2.60;;;8.80;99.90;;;;;;5097104;28;20196;-70
2022/01/03 12:11:59;;;;;;;3.80;2.47;;;8.80;99.90;;;;;;5106707;28;20239;-69
2022/01/03 12:14:40;;;;;;;4.80;3.00;;;8.80;99.90;;;;;;5093648;28;20203;-69
2022/01/03 12:17:09;;;;;;;4.40;3.03;;;8.80;99.90;;;;;;5094420;28;20204;-70
2022/01/03 12:19:37;;;;;;;5.30;2.70;;;8.80;99.90;;;;;;5094046;28;20318;-70
2022/01/03 12:22:14;;;;;;;5.03;3.10;;;8.80;99.90;;;;;;5085645;28;20250;-70
2022/01/03 12:25:03;;;;;;;6.03;2.57;;;8.80;99.90;;;;;;5091103;28;20251;-70
2022/01/03 12:27:39;;;;;;;6.07;2.90;;;8.80;99.90;;;;;;5095256;28;20204;-71
2022/01/03 12:30:20;;;;;;;4.10;3.03;;;8.70;99.90;;;;;;5096622;28;20231;-70
2022/01/03 12:33:15;;;;;;;5.00;3.00;;;8.70;99.90;;;;;;5096051;28;20205;-69
2022/01/03 12:35:44;;;;;;;5.90;4.03;;;8.70;99.90;;;;;;5090326;28;20209;-70
2022/01/03 12:38:19;;;;;;;6.60;4.43;;;8.70;99.90;;;;;;5097002;28;20211;-69
2022/01/03 12:40:56;;;;;;;6.60;3.93;;;8.60;99.90;;;;;;5092487;28;20748;-71
2022/01/03 12:43:35;;;;;;;5.17;3.93;;;8.60;99.90;;;;;;5087958;28;20211;-70
2022/01/03 12:46:04;;;;;;;4.17;3.70;;;8.60;99.90;;;;;;5093893;28;20215;-71
2022/01/03 12:48:34;;;;;;;6.73;3.73;;;8.60;99.90;;;;;;5092917;28;20208;-70
2022/01/03 12:51:15;;;;;;;4.73;3.67;;;8.70;99.90;;;;;;5089019;28;20204;-69
2022/01/03 12:53:55;;;;;;;4.17;3.37;;;8.70;99.90;;;;;;5092018;28;20277;-70
2022/01/03 12:56:30;;;;;;;6.03;3.90;;;8.70;99.90;;;;;;5092319;28;20227;-70
2022/01/03 12:58:58;;;;;;;5.80;3.70;;;8.70;99.90;;;;;;5089585;28;20235;-70
2022/01/03 13:01:31;;;;;;;6.20;3.33;;;8.70;99.90;;;;;;5090268;28;20661;-69
2022/01/03 13:04:18;;;;;;;4.10;3.60;;;8.60;99.90;;;;;;5091849;28;20673;-68
2022/01/03 13:06:47;;;;;;;5.37;3.37;;;8.70;99.90;;;;;;5087553;28;20196;-70
2022/01/03 13:09:17;;;;;;;6.53;5.00;;;8.60;99.90;;;;;;5091229;28;20201;-69
2022/01/03 13:11:45;;;;;;;10.50;5.93;;;8.60;99.90;;;;;;5090417;28;20215;-69
2022/01/03 13:14:15;;;;;;;5.70;3.23;;;8.60;99.90;;;;;;5089036;28;20683;-69
2022/01/03 13:16:44;;;;;;;5.27;3.20;;;8.60;99.90;;;;;;5092025;28;20603;-70
2022/01/03 13:19:13;;;;;;;3.47;3.07;;;8.60;99.90;;;;;;5094457;28;20219;-70
2022/01/03 13:21:43;;;;;;;3.80;3.10;;;8.50;99.90;;;;;;5088602;28;20204;-69